Goodwood, United Kingdom
Current Conditions -  °F | °C
As of 7:50 AM on Friday 19 Dec 2014 (Local Time) from EGKA Reporting Station
Drizzle Drizzle  
Wind Chill: 54°   Ceiling: 1200
Heat Index: 54°   Visibility: 6mi
Dew Point: 52°   Wind: 17mph
Humidity: 94%   Direction: 250°WSW
Pressure: 29.85"   Gusts: 29mph
Location:  50.87°N, 0.73°W
Report Text: EGKA 190750Z 25015G25KT 9000 4000E -DZ SCT008 BKN012 12/11 Q1011
Loading
Personal Weather Stations






























Interactive Weather Map New forecast layout! Learn more

10-Day Weather Forecast

Advertisements
Track Severe Weather on mobile